»·PEaware :: N523JS KOLS-KSLI

N523JS :: KOLS-KSLI

FLIGHT INFORMATION

Flight Status: Arrived
Operator: Privately registered:
United States
More flights under this callsign
Pilot: Anonymous 2940 (2940)
Aircraft: CANADAIR CL-600 CRJ-700
(CRJ7)
More flights by this aircraft type
Origin: KOLS Nogales Intl
United States
Destination: KSLI Los Alamitos AAF
United States
More flights between these airports :: More routes between these airports
Route: +BLH PSP POM
File this flight plan on PilotEdge
Remarks:
Altitude:
(Current/Filed)
24,000ft
Speed:
(Current/Filed)
455kts
Departed: 17-Aug-16 07:08 PM
Arrived: 17-Aug-16 08:09 PM
Distance/Time
Traveled:
391nm/1:01
Distance/Time
To Go:
Arrived

Flight Plot

Page will automatically refresh every two minutes.


Map Options




Map Legend


Flown Route
Filed Route
Departure Airport
Arrival Airport
Navaid (VOR, NDB)
Fix

Horizontal Profiles

Position Reports

Time Latitude Longitude Heading Altitude Ground
Speed
17-Aug-16 19:06 31.779549 -111.470632 304 24067ft 468kts
17-Aug-16 19:07 31.852710 -111.597768 304 24028ft 471kts
17-Aug-16 19:08 31.926243 -111.725961 304 24023ft 472kts
17-Aug-16 19:09 31.999624 -111.854317 304 24008ft 471kts
17-Aug-16 19:10 32.072607 -111.982404 304 23992ft 471kts
17-Aug-16 19:11 32.145685 -112.111095 304 23969ft 470kts
17-Aug-16 19:12 32.218458 -112.239686 304 23951ft 469kts
17-Aug-16 19:13 32.290766 -112.367886 304 23921ft 469kts
17-Aug-16 19:14 32.363197 -112.496744 304 23908ft 470kts
17-Aug-16 19:15 32.435249 -112.625109 304 24092ft 471kts
17-Aug-16 19:16 32.507527 -112.754818 304 24077ft 470kts
17-Aug-16 19:17 32.579748 -112.884647 304 24091ft 470kts
17-Aug-16 19:18 32.651499 -113.014076 304 24084ft 470kts
17-Aug-16 19:19 32.722911 -113.143326 303 24069ft 464kts
17-Aug-16 19:20 32.793677 -113.271862 303 24047ft 463kts
17-Aug-16 19:21 32.863999 -113.400028 303 24054ft 463kts
17-Aug-16 19:22 32.934435 -113.528842 303 23991ft 463kts
17-Aug-16 19:23 33.004989 -113.658329 303 24017ft 466kts
17-Aug-16 19:24 33.075798 -113.788748 302 23796ft 468kts
17-Aug-16 19:25 33.146413 -113.919267 302 23797ft 469kts
17-Aug-16 19:26 33.217218 -114.050246 302 23786ft 468kts
17-Aug-16 19:27 33.287451 -114.181260 302 23786ft 467kts
17-Aug-16 19:28 33.357279 -114.311795 302 23786ft 466kts
17-Aug-16 19:29 33.427212 -114.442913 302 23786ft 466kts
17-Aug-16 19:30 33.496947 -114.574130 302 23786ft 466kts
17-Aug-16 19:31 33.554747 -114.683253 302 23786ft 465kts
17-Aug-16 19:32 33.610823 -114.849464 281 23790ft 467kts
17-Aug-16 19:33 33.632594 -114.976722 282 23787ft 465kts
17-Aug-16 19:34 33.658548 -115.129212 282 23788ft 465kts
17-Aug-16 19:35 33.688289 -115.306720 281 23781ft 465kts
17-Aug-16 19:36 33.709483 -115.434262 281 23453ft 468kts
17-Aug-16 19:37 33.734635 -115.586772 281 21869ft 461kts
17-Aug-16 19:38 33.758243 -115.731240 281 20313ft 419kts
17-Aug-16 19:39 33.780227 -115.866413 280 18852ft 423kts
17-Aug-16 19:40 33.802633 -116.005415 280 17448ft 418kts
17-Aug-16 19:41 33.824429 -116.141624 280 16044ft 410kts
17-Aug-16 19:42 33.845617 -116.275030 280 14645ft 403kts
17-Aug-16 19:43 33.866353 -116.406520 280 13997ft 397kts
17-Aug-16 19:44 33.875499 -116.539220 275 12541ft 394kts
17-Aug-16 19:45 33.897573 -116.666000 281 10988ft 364kts
17-Aug-16 19:46 33.915941 -116.770218 279 10018ft 282kts
17-Aug-16 19:47 33.931301 -116.864025 279 10095ft 286kts
17-Aug-16 19:48 33.946670 -116.958426 279 10101ft 286kts
17-Aug-16 19:49 33.961903 -117.052372 279 10105ft 285kts
17-Aug-16 19:50 33.977137 -117.146796 279 8975ft 277kts
17-Aug-16 19:51 33.991733 -117.237725 279 6487ft 273kts
17-Aug-16 19:52 34.005297 -117.322450 278 4559ft 236kts
17-Aug-16 19:53 34.016674 -117.394088 278 4301ft 212kts
17-Aug-16 19:54 34.027765 -117.464145 278 3316ft 208kts
17-Aug-16 19:55 34.039310 -117.532916 279 3289ft 207kts
17-Aug-16 19:56 34.050419 -117.597433 279 3276ft 175kts
17-Aug-16 19:57 34.058787 -117.652603 277 3062ft 158kts
17-Aug-16 19:58 34.066521 -117.705313 277 3028ft 166kts
17-Aug-16 19:59 34.073283 -117.768397 259 3010ft 199kts
17-Aug-16 20:00 34.036189 -117.805273 201 3015ft 176kts
17-Aug-16 20:01 33.990854 -117.825469 201 3002ft 165kts
17-Aug-16 20:02 33.948482 -117.844068 201 3004ft 159kts
17-Aug-16 20:03 33.906839 -117.862490 204 3007ft 158kts
17-Aug-16 20:04 33.877315 -117.900126 235 3001ft 157kts
17-Aug-16 20:05 33.851148 -117.944760 234 1685ft 165kts
17-Aug-16 20:06 33.826549 -117.987014 234 1016ft 157kts
17-Aug-16 20:07 33.803193 -118.026987 234 518ft 125kts
17-Aug-16 20:08 33.791493 -118.048692 267 42ft 1kts
17-Aug-16 20:09 33.791488 -118.048807 266 42ft 1kts
17-Aug-16 20:10 33.793075 -118.053325 74 42ft 17kts
17-Aug-16 20:11 33.793101 -118.053062 92 42ft 0kts
17-Aug-16 20:12 33.793101 -118.053059 92 42ft 0kts
17-Aug-16 20:13 33.793101 -118.053056 92 42ft 0kts
17-Aug-16 20:14 33.793100 -118.053054 92 42ft 0kts
17-Aug-16 20:15 33.793100 -118.053051 92 42ft 0kts
17-Aug-16 20:16 33.793100 -118.053048 92 42ft 0kts
17-Aug-16 20:17 33.793100 -118.053046 92 42ft 0kts
17-Aug-16 20:18 33.793100 -118.053043 92 42ft 0kts
17-Aug-16 20:19 33.793099 -118.053040 92 42ft 0kts
17-Aug-16 20:20 33.793099 -118.053038 92 42ft 0kts
17-Aug-16 20:21 33.793099 -118.053035 92 42ft 0kts
17-Aug-16 20:22 33.793099 -118.053032 92 42ft 0kts
17-Aug-16 20:23 33.793099 -118.053030 92 42ft 0kts

Navigation Log

Ident Type
Flight plan parsing failed, navigation log unavailable